sensor_id;sensor_type;location;lat;lon;timestamp;P1;durP1;ratioP1;P2;durP2;ratioP2
16193;SDS011;8204;53.582;10.080;2023-04-10T12:27:36;10.33;;;8.20;;
16193;SDS011;8204;53.582;10.080;2023-04-10T12:30:06;8.80;;;8.07;;
16193;SDS011;8204;53.582;10.080;2023-04-10T12:32:36;7.33;;;6.83;;
16193;SDS011;8204;53.582;10.080;2023-04-10T12:35:05;8.00;;;7.30;;
16193;SDS011;8204;53.582;10.080;2023-04-10T12:37:46;7.53;;;6.90;;
16193;SDS011;8204;53.582;10.080;2023-04-10T12:40:16;7.73;;;7.13;;
16193;SDS011;8204;53.582;10.080;2023-04-10T12:42:49;8.47;;;7.70;;
16193;SDS011;8204;53.582;10.080;2023-04-10T12:45:18;7.80;;;7.20;;
16193;SDS011;8204;53.582;10.080;2023-04-10T12:47:48;7.33;;;6.83;;
16193;SDS011;8204;53.582;10.080;2023-04-10T12:50:18;7.53;;;6.93;;
16193;SDS011;8204;53.582;10.080;2023-04-10T12:53:00;7.47;;;6.90;;
16193;SDS011;8204;53.582;10.080;2023-04-10T12:55:31;7.67;;;6.97;;
16193;SDS011;8204;53.582;10.080;2023-04-10T13:00:53;7.43;;;6.87;;
16193;SDS011;8204;53.582;10.080;2023-04-10T13:03:23;7.73;;;7.03;;
16193;SDS011;8204;53.582;10.080;2023-04-10T13:05:52;8.57;;;7.77;;
16193;SDS011;8204;53.582;10.080;2023-04-10T13:08:21;7.37;;;6.77;;
16193;SDS011;8204;53.582;10.080;2023-04-10T13:10:50;6.20;;;5.70;;
16193;SDS011;8204;53.582;10.080;2023-04-10T13:13:22;7.83;;;7.23;;
16193;SDS011;8204;53.582;10.080;2023-04-10T13:15:51;7.53;;;6.87;;
16193;SDS011;8204;53.582;10.080;2023-04-10T13:18:20;6.77;;;6.17;;
16193;SDS011;8204;53.582;10.080;2023-04-10T13:20:50;6.63;;;6.03;;
16193;SDS011;8204;53.582;10.080;2023-04-10T13:23:19;6.47;;;6.00;;
16193;SDS011;8204;53.582;10.080;2023-04-10T13:25:48;7.03;;;6.53;;
16193;SDS011;8204;53.582;10.080;2023-04-10T13:28:18;6.50;;;6.00;;
16193;SDS011;8204;53.582;10.080;2023-04-10T13:30:50;7.23;;;6.17;;
16193;SDS011;8204;53.582;10.080;2023-04-10T13:33:20;7.90;;;7.30;;
16193;SDS011;8204;53.582;10.080;2023-04-10T13:35:49;6.90;;;6.40;;
16193;SDS011;8204;53.582;10.080;2023-04-10T13:38:18;6.93;;;6.37;;
16193;SDS011;8204;53.582;10.080;2023-04-10T13:40:47;6.70;;;6.20;;
16193;SDS011;8204;53.582;10.080;2023-04-10T13:43:16;6.80;;;6.17;;
16193;SDS011;8204;53.582;10.080;2023-04-10T13:45:45;6.90;;;6.40;;
16193;SDS011;8204;53.582;10.080;2023-04-10T13:48:17;6.63;;;6.13;;
16193;SDS011;8204;53.582;10.080;2023-04-10T13:50:45;7.87;;;7.20;;
16193;SDS011;8204;53.582;10.080;2023-04-10T13:53:14;7.60;;;7.00;;
16193;SDS011;8204;53.582;10.080;2023-04-10T13:55:43;7.93;;;7.23;;
16193;SDS011;8204;53.582;10.080;2023-04-10T13:58:14;8.87;;;8.07;;
16193;SDS011;8204;53.582;10.080;2023-04-10T14:00:44;8.20;;;7.40;;
16193;SDS011;8204;53.582;10.080;2023-04-10T14:03:13;8.77;;;7.97;;
16193;SDS011;8204;53.582;10.080;2023-04-10T14:05:46;8.87;;;8.10;;
16193;SDS011;8204;53.582;10.080;2023-04-10T14:08:15;9.50;;;8.23;;
16193;SDS011;8204;53.582;10.080;2023-04-10T14:10:44;8.37;;;7.57;;
16193;SDS011;8204;53.582;10.080;2023-04-10T14:13:15;8.57;;;7.87;;
16193;SDS011;8204;53.582;10.080;2023-04-10T14:15:45;8.03;;;7.40;;
16193;SDS011;8204;53.582;10.080;2023-04-10T14:18:16;8.43;;;7.63;;
16193;SDS011;8204;53.582;10.080;2023-04-10T14:20:48;8.27;;;7.57;;
16193;SDS011;8204;53.582;10.080;2023-04-10T14:23:18;8.93;;;8.13;;
16193;SDS011;8204;53.582;10.080;2023-04-10T14:25:48;8.33;;;7.53;;
16193;SDS011;8204;53.582;10.080;2023-04-10T14:28:18;9.90;;;9.03;;
16193;SDS011;8204;53.582;10.080;2023-04-10T14:30:49;10.47;;;9.53;;
16193;SDS011;8204;53.582;10.080;2023-04-10T14:33:19;9.20;;;8.40;;
16193;SDS011;8204;53.582;10.080;2023-04-10T14:35:51;9.67;;;8.77;;
16193;SDS011;8204;53.582;10.080;2023-04-10T14:38:20;9.30;;;8.60;;
16193;SDS011;8204;53.582;10.080;2023-04-10T14:40:49;10.27;;;9.47;;
16193;SDS011;8204;53.582;10.080;2023-04-10T14:43:18;11.60;;;10.40;;
16193;SDS011;8204;53.582;10.080;2023-04-10T14:45:47;11.17;;;9.97;;
16193;SDS011;8204;53.582;10.080;2023-04-10T14:48:16;10.63;;;9.73;;
16193;SDS011;8204;53.582;10.080;2023-04-10T14:50:45;10.43;;;9.60;;
16193;SDS011;8204;53.582;10.080;2023-04-10T14:53:17;9.60;;;8.90;;
16193;SDS011;8204;53.582;10.080;2023-04-10T14:55:47;9.87;;;8.37;;
16193;SDS011;8204;53.582;10.080;2023-04-10T14:58:16;11.07;;;10.07;;
16193;SDS011;8204;53.582;10.080;2023-04-10T15:00:45;10.30;;;9.47;;
16193;SDS011;8204;53.582;10.080;2023-04-10T15:03:15;9.83;;;9.03;;
16193;SDS011;8204;53.582;10.080;2023-04-10T15:05:44;10.30;;;9.30;;
16193;SDS011;8204;53.582;10.080;2023-04-10T15:08:12;9.80;;;8.33;;
16193;SDS011;8204;53.582;10.080;2023-04-10T15:10:45;8.30;;;7.70;;
16193;SDS011;8204;53.582;10.080;2023-04-10T15:13:15;7.73;;;7.17;;
16193;SDS011;8204;53.582;10.080;2023-04-10T15:15:44;6.83;;;6.33;;
16193;SDS011;8204;53.582;10.080;2023-04-10T15:18:14;7.33;;;6.73;;
16193;SDS011;8204;53.582;10.080;2023-04-10T15:20:43;11.00;;;7.17;;
16193;SDS011;8204;53.582;10.080;2023-04-10T15:23:11;9.13;;;8.33;;
16193;SDS011;8204;53.582;10.080;2023-04-10T15:25:40;9.23;;;8.43;;
16193;SDS011;8204;53.582;10.080;2023-04-10T15:28:12;8.23;;;7.43;;
16193;SDS011;8204;53.582;10.080;2023-04-10T15:30:42;10.00;;;9.10;;
16193;SDS011;8204;53.582;10.080;2023-04-10T15:33:14;9.37;;;8.57;;
16193;SDS011;8204;53.582;10.080;2023-04-10T15:35:45;9.57;;;8.77;;
16193;SDS011;8204;53.582;10.080;2023-04-10T15:38:16;8.67;;;7.90;;
16193;SDS011;8204;53.582;10.080;2023-04-10T15:40:45;9.17;;;8.43;;
16193;SDS011;8204;53.582;10.080;2023-04-10T15:43:16;9.03;;;8.33;;
16193;SDS011;8204;53.582;10.080;2023-04-10T15:45:46;7.77;;;7.07;;
16193;SDS011;8204;53.582;10.080;2023-04-10T15:48:14;8.20;;;7.47;;
16193;SDS011;8204;53.582;10.080;2023-04-10T15:50:44;8.97;;;7.23;;
16193;SDS011;8204;53.582;10.080;2023-04-10T15:53:13;8.33;;;7.53;;
16193;SDS011;8204;53.582;10.080;2023-04-10T15:55:42;7.17;;;6.57;;
16193;SDS011;8204;53.582;10.080;2023-04-10T15:58:11;7.60;;;6.90;;
16193;SDS011;8204;53.582;10.080;2023-04-10T16:00:42;7.47;;;6.90;;
16193;SDS011;8204;53.582;10.080;2023-04-10T16:03:11;7.07;;;6.37;;
16193;SDS011;8204;53.582;10.080;2023-04-10T16:05:40;8.53;;;7.67;;
16193;SDS011;8204;53.582;10.080;2023-04-10T16:08:09;8.10;;;6.90;;
16193;SDS011;8204;53.582;10.080;2023-04-10T16:10:38;6.60;;;6.00;;
16193;SDS011;8204;53.582;10.080;2023-04-10T16:13:06;6.80;;;6.27;;
16193;SDS011;8204;53.582;10.080;2023-04-10T16:15:35;6.87;;;6.37;;
16193;SDS011;8204;53.582;10.080;2023-04-10T16:18:07;7.87;;;7.17;;
16193;SDS011;8204;53.582;10.080;2023-04-10T16:20:36;7.00;;;6.40;;
16193;SDS011;8204;53.582;10.080;2023-04-10T16:23:07;8.73;;;8.03;;
16193;SDS011;8204;53.582;10.080;2023-04-10T16:25:37;7.20;;;6.63;;
16193;SDS011;8204;53.582;10.080;2023-04-10T16:28:06;8.20;;;7.47;;
16193;SDS011;8204;53.582;10.080;2023-04-10T16:30:36;9.63;;;8.73;;
16193;SDS011;8204;53.582;10.080;2023-04-10T16:33:05;9.33;;;8.53;;
16193;SDS011;8204;53.582;10.080;2023-04-10T16:35:36;10.53;;;9.57;;
16193;SDS011;8204;53.582;10.080;2023-04-10T16:38:05;10.10;;;9.20;;
16193;SDS011;8204;53.582;10.080;2023-04-10T16:40:34;9.90;;;8.90;;
16193;SDS011;8204;53.582;10.080;2023-04-10T16:43:03;9.73;;;8.83;;
16193;SDS011;8204;53.582;10.080;2023-04-10T16:45:33;9.63;;;8.93;;
16193;SDS011;8204;53.582;10.080;2023-04-10T16:48:03;10.23;;;9.23;;
16193;SDS011;8204;53.582;10.080;2023-04-10T16:50:35;10.30;;;9.40;;
16193;SDS011;8204;53.582;10.080;2023-04-10T16:53:04;9.90;;;8.90;;
16193;SDS011;8204;53.582;10.080;2023-04-10T16:55:33;10.30;;;9.50;;
16193;SDS011;8204;53.582;10.080;2023-04-10T16:58:02;9.67;;;8.77;;
16193;SDS011;8204;53.582;10.080;2023-04-10T17:00:32;9.30;;;8.60;;
16193;SDS011;8204;53.582;10.080;2023-04-10T17:03:01;10.40;;;9.50;;
16193;SDS011;8204;53.582;10.080;2023-04-10T17:05:31;8.93;;;8.23;;
16193;SDS011;8204;53.582;10.080;2023-04-10T17:08:04;9.27;;;8.47;;
16193;SDS011;8204;53.582;10.080;2023-04-10T17:10:34;9.47;;;8.67;;
16193;SDS011;8204;53.582;10.080;2023-04-10T17:13:02;10.77;;;9.70;;
16193;SDS011;8204;53.582;10.080;2023-04-10T17:15:31;11.53;;;10.43;;
16193;SDS011;8204;53.582;10.080;2023-04-10T17:18:00;9.93;;;8.93;;
16193;SDS011;8204;53.582;10.080;2023-04-10T17:20:29;11.07;;;9.97;;
16193;SDS011;8204;53.582;10.080;2023-04-10T17:23:00;13.97;;;12.67;;
16193;SDS011;8204;53.582;10.080;2023-04-10T17:25:29;8.93;;;8.23;;
16193;SDS011;8204;53.582;10.080;2023-04-10T17:27:58;8.33;;;7.73;;
16193;SDS011;8204;53.582;10.080;2023-04-10T17:30:27;8.47;;;7.73;;
16193;SDS011;8204;53.582;10.080;2023-04-10T17:32:57;9.27;;;8.47;;
16193;SDS011;8204;53.582;10.080;2023-04-10T17:35:26;9.13;;;8.27;;
16193;SDS011;8204;53.582;10.080;2023-04-10T17:37:55;10.67;;;9.67;;
16193;SDS011;8204;53.582;10.080;2023-04-10T17:40:26;9.03;;;8.23;;
16193;SDS011;8204;53.582;10.080;2023-04-10T17:42:55;10.10;;;9.30;;
16193;SDS011;8204;53.582;10.080;2023-04-10T17:45:24;10.97;;;9.93;;
16193;SDS011;8204;53.582;10.080;2023-04-10T17:50:39;9.70;;;8.73;;
16193;SDS011;8204;53.582;10.080;2023-04-10T17:53:08;9.50;;;8.60;;
16193;SDS011;8204;53.582;10.080;2023-04-10T17:55:40;9.23;;;8.43;;
16193;SDS011;8204;53.582;10.080;2023-04-10T17:58:10;9.23;;;8.43;;
16193;SDS011;8204;53.582;10.080;2023-04-10T18:00:39;8.83;;;7.93;;
16193;SDS011;8204;53.582;10.080;2023-04-10T18:03:09;8.30;;;7.60;;
16193;SDS011;8204;53.582;10.080;2023-04-10T18:05:38;9.27;;;8.47;;
16193;SDS011;8204;53.582;10.080;2023-04-10T18:08:07;8.77;;;8.03;;
16193;SDS011;8204;53.582;10.080;2023-04-10T18:10:36;11.20;;;10.13;;
16193;SDS011;8204;53.582;10.080;2023-04-10T18:13:07;10.43;;;9.30;;
16193;SDS011;8204;53.582;10.080;2023-04-10T18:15:37;9.47;;;8.63;;
16193;SDS011;8204;53.582;10.080;2023-04-10T18:18:05;10.37;;;9.47;;
16193;SDS011;8204;53.582;10.080;2023-04-10T18:20:34;11.37;;;10.37;;
16193;SDS011;8204;53.582;10.080;2023-04-10T18:23:03;9.93;;;9.13;;
16193;SDS011;8204;53.582;10.080;2023-04-10T18:25:33;10.30;;;9.40;;
16193;SDS011;8204;53.582;10.080;2023-04-10T18:28:01;10.60;;;9.60;;
16193;SDS011;8204;53.582;10.080;2023-04-10T18:30:33;11.20;;;9.13;;
16193;SDS011;8204;53.582;10.080;2023-04-10T18:33:03;11.03;;;10.07;;
16193;SDS011;8204;53.582;10.080;2023-04-10T18:35:33;11.70;;;10.70;;
16193;SDS011;8204;53.582;10.080;2023-04-10T18:38:02;9.83;;;8.70;;
16193;SDS011;8204;53.582;10.080;2023-04-10T18:40:31;10.30;;;9.47;;
16193;SDS011;8204;53.582;10.080;2023-04-10T18:43:01;9.60;;;8.87;;
16193;SDS011;8204;53.582;10.080;2023-04-10T18:45:30;9.70;;;8.90;;
16193;SDS011;8204;53.582;10.080;2023-04-10T18:48:02;10.47;;;9.57;;
16193;SDS011;8204;53.582;10.080;2023-04-10T18:50:32;9.87;;;9.07;;
16193;SDS011;8204;53.582;10.080;2023-04-10T18:53:03;9.83;;;9.03;;
16193;SDS011;8204;53.582;10.080;2023-04-10T18:55:31;10.03;;;9.13;;
16193;SDS011;8204;53.582;10.080;2023-04-10T18:58:01;11.43;;;9.23;;
16193;SDS011;8204;53.582;10.080;2023-04-10T19:00:29;10.23;;;9.40;;
16193;SDS011;8204;53.582;10.080;2023-04-10T19:03:01;9.93;;;9.13;;
16193;SDS011;8204;53.582;10.080;2023-04-10T19:05:30;10.13;;;9.33;;
16193;SDS011;8204;53.582;10.080;2023-04-10T19:07:59;10.43;;;9.53;;
16193;SDS011;8204;53.582;10.080;2023-04-10T19:10:28;11.53;;;10.43;;
16193;SDS011;8204;53.582;10.080;2023-04-10T19:12:57;10.13;;;9.33;;
16193;SDS011;8204;53.582;10.080;2023-04-10T19:15:25;10.30;;;9.30;;
16193;SDS011;8204;53.582;10.080;2023-04-10T19:17:53;9.67;;;8.87;;
16193;SDS011;8204;53.582;10.080;2023-04-10T19:20:23;10.83;;;9.87;;
16193;SDS011;8204;53.582;10.080;2023-04-10T19:22:52;10.27;;;9.40;;
16193;SDS011;8204;53.582;10.080;2023-04-10T19:25:20;11.20;;;10.20;;
16193;SDS011;8204;53.582;10.080;2023-04-10T19:27:48;10.10;;;9.20;;
16193;SDS011;8204;53.582;10.080;2023-04-10T19:30:17;11.93;;;10.87;;
16193;SDS011;8204;53.582;10.080;2023-04-10T19:32:45;10.47;;;9.57;;
16193;SDS011;8204;53.582;10.080;2023-04-10T19:35:13;11.80;;;10.80;;
16193;SDS011;8204;53.582;10.080;2023-04-10T19:37:43;11.17;;;10.27;;
16193;SDS011;8204;53.582;10.080;2023-04-10T19:40:12;10.70;;;9.87;;
16193;SDS011;8204;53.582;10.080;2023-04-10T19:42:40;11.70;;;10.57;;
16193;SDS011;8204;53.582;10.080;2023-04-10T19:45:09;10.73;;;9.83;;
16193;SDS011;8204;53.582;10.080;2023-04-10T19:47:38;11.53;;;10.43;;
16193;SDS011;8204;53.582;10.080;2023-04-10T19:50:07;10.90;;;9.90;;
16193;SDS011;8204;53.582;10.080;2023-04-10T19:52:36;12.03;;;10.97;;
16193;SDS011;8204;53.582;10.080;2023-04-10T19:55:07;10.37;;;9.57;;
16193;SDS011;8204;53.582;10.080;2023-04-10T19:57:36;11.77;;;10.67;;
16193;SDS011;8204;53.582;10.080;2023-04-10T20:00:05;10.87;;;9.87;;
16193;SDS011;8204;53.582;10.080;2023-04-10T20:02:34;12.70;;;11.47;;
16193;SDS011;8204;53.582;10.080;2023-04-10T20:05:03;12.17;;;11.17;;
16193;SDS011;8204;53.582;10.080;2023-04-10T20:07:32;11.87;;;10.87;;
16193;SDS011;8204;53.582;10.080;2023-04-10T20:10:02;11.97;;;10.97;;
16193;SDS011;8204;53.582;10.080;2023-04-10T20:12:33;12.67;;;11.47;;
16193;SDS011;8204;53.582;10.080;2023-04-10T20:15:03;11.80;;;10.63;;
16193;SDS011;8204;53.582;10.080;2023-04-10T20:17:33;11.77;;;10.80;;
16193;SDS011;8204;53.582;10.080;2023-04-10T20:20:03;10.83;;;9.73;;
16193;SDS011;8204;53.582;10.080;2023-04-10T20:22:34;12.03;;;10.93;;
16193;SDS011;8204;53.582;10.080;2023-04-10T20:25:03;11.10;;;10.07;;
16193;SDS011;8204;53.582;10.080;2023-04-10T20:27:36;11.73;;;10.70;;
16193;SDS011;8204;53.582;10.080;2023-04-10T20:30:06;12.33;;;11.23;;
16193;SDS011;8204;53.582;10.080;2023-04-10T20:32:36;11.70;;;10.57;;
16193;SDS011;8204;53.582;10.080;2023-04-10T20:35:07;10.43;;;9.53;;
16193;SDS011;8204;53.582;10.080;2023-04-10T20:37:37;11.30;;;10.27;;
16193;SDS011;8204;53.582;10.080;2023-04-10T20:40:08;11.33;;;10.23;;
16193;SDS011;8204;53.582;10.080;2023-04-10T20:42:39;10.40;;;9.60;;
16193;SDS011;8204;53.582;10.080;2023-04-10T20:45:10;12.47;;;10.83;;
16193;SDS011;8204;53.582;10.080;2023-04-10T20:47:39;12.60;;;11.50;;
16193;SDS011;8204;53.582;10.080;2023-04-10T20:50:09;11.00;;;10.00;;
16193;SDS011;8204;53.582;10.080;2023-04-10T20:52:38;13.27;;;11.87;;
16193;SDS011;8204;53.582;10.080;2023-04-10T20:55:07;11.67;;;10.67;;
16193;SDS011;8204;53.582;10.080;2023-04-10T20:57:36;12.43;;;11.33;;
16193;SDS011;8204;53.582;10.080;2023-04-10T21:00:09;10.77;;;9.87;;
16193;SDS011;8204;53.582;10.080;2023-04-10T21:02:38;10.03;;;9.17;;
16193;SDS011;8204;53.582;10.080;2023-04-10T21:05:08;9.53;;;8.83;;
16193;SDS011;8204;53.582;10.080;2023-04-10T21:07:37;10.17;;;9.10;;
16193;SDS011;8204;53.582;10.080;2023-04-10T21:10:06;10.00;;;9.03;;
16193;SDS011;8204;53.582;10.080;2023-04-10T21:12:36;9.47;;;8.77;;
16193;SDS011;8204;53.582;10.080;2023-04-10T21:15:05;10.23;;;9.40;;
16193;SDS011;8204;53.582;10.080;2023-04-10T21:17:37;9.77;;;8.87;;
16193;SDS011;8204;53.582;10.080;2023-04-10T21:20:06;9.93;;;9.10;;
16193;SDS011;8204;53.582;10.080;2023-04-10T21:22:35;9.73;;;8.83;;
16193;SDS011;8204;53.582;10.080;2023-04-10T21:25:05;9.57;;;8.70;;
16193;SDS011;8204;53.582;10.080;2023-04-10T21:27:35;9.57;;;8.70;;
16193;SDS011;8204;53.582;10.080;2023-04-10T21:30:04;10.10;;;9.30;;
16193;SDS011;8204;53.582;10.080;2023-04-10T21:32:36;10.23;;;9.43;;
16193;SDS011;8204;53.582;10.080;2023-04-10T21:35:05;8.93;;;8.13;;
16193;SDS011;8204;53.582;10.080;2023-04-10T21:37:35;8.73;;;8.03;;
16193;SDS011;8204;53.582;10.080;2023-04-10T21:40:04;8.93;;;8.23;;
16193;SDS011;8204;53.582;10.080;2023-04-10T21:42:35;8.83;;;7.20;;
16193;SDS011;8204;53.582;10.080;2023-04-10T21:45:04;8.93;;;8.13;;
16193;SDS011;8204;53.582;10.080;2023-04-10T21:47:37;7.93;;;7.30;;
16193;SDS011;8204;53.582;10.080;2023-04-10T21:50:06;8.70;;;7.97;;
16193;SDS011;8204;53.582;10.080;2023-04-10T21:52:35;7.90;;;7.30;;
16193;SDS011;8204;53.582;10.080;2023-04-10T21:55:05;7.90;;;7.13;;
16193;SDS011;8204;53.582;10.080;2023-04-10T21:57:35;7.07;;;6.50;;
16193;SDS011;8204;53.582;10.080;2023-04-10T22:00:04;6.37;;;5.87;;
16193;SDS011;8204;53.582;10.080;2023-04-10T22:02:37;5.67;;;5.20;;
16193;SDS011;8204;53.582;10.080;2023-04-10T22:05:06;5.83;;;5.33;;
16193;SDS011;8204;53.582;10.080;2023-04-10T22:07:36;6.80;;;6.07;;
16193;SDS011;8204;53.582;10.080;2023-04-10T22:10:05;5.87;;;5.37;;
16193;SDS011;8204;53.582;10.080;2023-04-10T22:12:35;5.20;;;4.70;;
16193;SDS011;8204;53.582;10.080;2023-04-10T22:15:04;5.47;;;5.07;;
16193;SDS011;8204;53.582;10.080;2023-04-10T22:17:33;5.13;;;4.70;;
16193;SDS011;8204;53.582;10.080;2023-04-10T22:20:07;4.53;;;4.20;;
16193;SDS011;8204;53.582;10.080;2023-04-10T22:22:36;5.67;;;5.17;;
16193;SDS011;8204;53.582;10.080;2023-04-10T22:25:06;5.30;;;4.80;;
16193;SDS011;8204;53.582;10.080;2023-04-10T22:27:35;4.97;;;4.47;;
16193;SDS011;8204;53.582;10.080;2023-04-10T22:30:05;5.20;;;4.90;;
16193;SDS011;8204;53.582;10.080;2023-04-10T22:32:37;4.93;;;4.53;;
16193;SDS011;8204;53.582;10.080;2023-04-10T22:35:06;4.80;;;4.40;;
16193;SDS011;8204;53.582;10.080;2023-04-10T22:37:36;6.00;;;4.67;;
16193;SDS011;8204;53.582;10.080;2023-04-10T22:40:06;7.43;;;6.73;;
16193;SDS011;8204;53.582;10.080;2023-04-10T22:42:35;10.80;;;7.93;;
16193;SDS011;8204;53.582;10.080;2023-04-10T22:45:05;8.90;;;7.37;;
16193;SDS011;8204;53.582;10.080;2023-04-10T22:47:37;8.47;;;7.77;;
16193;SDS011;8204;53.582;10.080;2023-04-10T22:50:06;17.53;;;12.73;;
16193;SDS011;8204;53.582;10.080;2023-04-10T22:52:36;29.37;;;20.17;;
16193;SDS011;8204;53.582;10.080;2023-04-10T22:55:06;28.20;;;24.23;;
16193;SDS011;8204;53.582;10.080;2023-04-10T22:57:36;31.13;;;27.47;;
16193;SDS011;8204;53.582;10.080;2023-04-10T23:00:05;36.77;;;30.23;;
16193;SDS011;8204;53.582;10.080;2023-04-10T23:02:38;25.10;;;19.93;;
16193;SDS011;8204;53.582;10.080;2023-04-10T23:05:08;18.80;;;14.77;;
16193;SDS011;8204;53.582;10.080;2023-04-10T23:07:36;15.77;;;12.93;;
16193;SDS011;8204;53.582;10.080;2023-04-10T23:10:06;8.57;;;7.77;;
16193;SDS011;8204;53.582;10.080;2023-04-10T23:12:36;7.23;;;6.53;;
16193;SDS011;8204;53.582;10.080;2023-04-10T23:15:05;7.37;;;6.67;;
16193;SDS011;8204;53.582;10.080;2023-04-10T23:17:37;6.40;;;5.77;;
16193;SDS011;8204;53.582;10.080;2023-04-10T23:20:07;6.23;;;5.63;;
16193;SDS011;8204;53.582;10.080;2023-04-10T23:22:36;5.63;;;5.13;;
16193;SDS011;8204;53.582;10.080;2023-04-10T23:25:05;5.57;;;5.10;;
16193;SDS011;8204;53.582;10.080;2023-04-10T23:27:34;6.33;;;5.57;;
16193;SDS011;8204;53.582;10.080;2023-04-10T23:30:04;5.50;;;5.10;;
16193;SDS011;8204;53.582;10.080;2023-04-10T23:32:34;5.60;;;5.20;;
16193;SDS011;8204;53.582;10.080;2023-04-10T23:35:06;5.63;;;5.13;;
16193;SDS011;8204;53.582;10.080;2023-04-10T23:37:35;5.53;;;5.13;;
16193;SDS011;8204;53.582;10.080;2023-04-10T23:40:05;5.27;;;4.87;;
16193;SDS011;8204;53.582;10.080;2023-04-10T23:42:35;5.20;;;4.80;;
16193;SDS011;8204;53.582;10.080;2023-04-10T23:45:04;5.73;;;5.13;;
16193;SDS011;8204;53.582;10.080;2023-04-10T23:47:34;5.67;;;5.17;;
16193;SDS011;8204;53.582;10.080;2023-04-10T23:50:03;6.07;;;5.00;;
16193;SDS011;8204;53.582;10.080;2023-04-10T23:52:35;5.33;;;4.77;;
16193;SDS011;8204;53.582;10.080;2023-04-10T23:55:04;5.50;;;4.17;;
16193;SDS011;8204;53.582;10.080;2023-04-10T23:57:34;5.47;;;5.07;;
